sensor_id;sensor_type;location;lat;lon;timestamp;pressure;altitude;pressure_sealevel;temperature;humidity
67803;BME280;54601;51.378;-1.342;2023-04-09T00:00:19;101087.33;;;19.46;28.89
67803;BME280;54601;51.378;-1.342;2023-04-09T00:02:44;101086.47;;;18.38;29.76
67803;BME280;54601;51.378;-1.342;2023-04-09T00:05:09;101082.71;;;19.03;29.30
67803;BME280;54601;51.378;-1.342;2023-04-09T00:07:34;101083.41;;;19.69;28.82
67803;BME280;54601;51.378;-1.342;2023-04-09T00:09:59;101083.64;;;19.83;28.58
67803;BME280;54601;51.378;-1.342;2023-04-09T00:12:24;101082.15;;;19.95;28.50
67803;BME280;54601;51.378;-1.342;2023-04-09T00:14:50;101081.89;;;19.51;28.51
67803;BME280;54601;51.378;-1.342;2023-04-09T00:17:15;101081.51;;;19.89;28.50
67803;BME280;54601;51.378;-1.342;2023-04-09T00:19:40;101081.13;;;19.75;28.55
67803;BME280;54601;51.378;-1.342;2023-04-09T00:22:05;101082.09;;;19.66;28.43
67803;BME280;54601;51.378;-1.342;2023-04-09T00:24:30;101077.71;;;19.63;28.73
67803;BME280;54601;51.378;-1.342;2023-04-09T00:26:55;101077.47;;;19.87;28.45
67803;BME280;54601;51.378;-1.342;2023-04-09T00:29:20;101070.46;;;19.67;28.40
67803;BME280;54601;51.378;-1.342;2023-04-09T00:31:45;101068.37;;;19.76;28.53
67803;BME280;54601;51.378;-1.342;2023-04-09T00:34:10;101067.65;;;19.86;28.43
67803;BME280;54601;51.378;-1.342;2023-04-09T00:36:36;101065.65;;;19.23;28.56
67803;BME280;54601;51.378;-1.342;2023-04-09T00:39:01;101061.70;;;19.54;28.43
67803;BME280;54601;51.378;-1.342;2023-04-09T00:41:26;101061.28;;;19.86;28.37
67803;BME280;54601;51.378;-1.342;2023-04-09T00:43:51;101058.46;;;19.74;28.35
67803;BME280;54601;51.378;-1.342;2023-04-09T00:46:17;101057.84;;;19.47;28.63
67803;BME280;54601;51.378;-1.342;2023-04-09T00:48:41;101052.32;;;19.62;28.50
67803;BME280;54601;51.378;-1.342;2023-04-09T00:51:07;101052.71;;;19.20;28.71
67803;BME280;54601;51.378;-1.342;2023-04-09T00:53:31;101049.24;;;19.67;28.46
67803;BME280;54601;51.378;-1.342;2023-04-09T00:55:57;101049.63;;;19.60;28.30
67803;BME280;54601;51.378;-1.342;2023-04-09T00:58:22;101045.32;;;19.68;28.36
67803;BME280;54601;51.378;-1.342;2023-04-09T01:00:47;101041.84;;;19.69;28.27
67803;BME280;54601;51.378;-1.342;2023-04-09T01:03:12;101039.90;;;19.70;28.34
67803;BME280;54601;51.378;-1.342;2023-04-09T01:05:42;101034.46;;;19.68;28.32
67803;BME280;54601;51.378;-1.342;2023-04-09T01:08:07;101032.49;;;19.66;28.32
67803;BME280;54601;51.378;-1.342;2023-04-09T01:10:33;101032.37;;;19.48;28.25
67803;BME280;54601;51.378;-1.342;2023-04-09T01:13:02;101029.09;;;19.48;28.24
67803;BME280;54601;51.378;-1.342;2023-04-09T01:15:23;101024.94;;;18.91;28.95
67803;BME280;54601;51.378;-1.342;2023-04-09T01:17:45;101022.39;;;19.46;28.49
67803;BME280;54601;51.378;-1.342;2023-04-09T01:20:11;101018.46;;;19.19;28.61
67803;BME280;54601;51.378;-1.342;2023-04-09T01:22:47;101013.09;;;19.52;28.41
67803;BME280;54601;51.378;-1.342;2023-04-09T01:25:08;101009.60;;;19.59;28.34
67803;BME280;54601;51.378;-1.342;2023-04-09T01:27:24;101007.11;;;19.65;28.22
67803;BME280;54601;51.378;-1.342;2023-04-09T01:29:50;101006.06;;;19.47;28.35
67803;BME280;54601;51.378;-1.342;2023-04-09T01:32:16;101005.45;;;19.54;28.35
67803;BME280;54601;51.378;-1.342;2023-04-09T01:34:40;101002.06;;;19.55;28.23
67803;BME280;54601;51.378;-1.342;2023-04-09T01:37:04;101003.40;;;19.47;28.32
67803;BME280;54601;51.378;-1.342;2023-04-09T01:39:29;101003.00;;;19.31;28.44
67803;BME280;54601;51.378;-1.342;2023-04-09T01:41:54;101001.01;;;19.46;28.27
67803;BME280;54601;51.378;-1.342;2023-04-09T01:44:19;100995.63;;;19.49;28.28
67803;BME280;54601;51.378;-1.342;2023-04-09T01:46:45;100992.59;;;19.43;28.26
67803;BME280;54601;51.378;-1.342;2023-04-09T01:49:10;100994.68;;;18.85;28.65
67803;BME280;54601;51.378;-1.342;2023-04-09T01:51:35;100991.15;;;19.39;28.30
67803;BME280;54601;51.378;-1.342;2023-04-09T01:54:00;100988.98;;;19.07;28.53
67803;BME280;54601;51.378;-1.342;2023-04-09T01:56:25;100990.02;;;19.39;28.23
67803;BME280;54601;51.378;-1.342;2023-04-09T01:58:50;100989.72;;;19.38;28.28
67803;BME280;54601;51.378;-1.342;2023-04-09T02:01:21;100993.96;;;19.44;28.20
67803;BME280;54601;51.378;-1.342;2023-04-09T02:03:45;100993.38;;;19.40;28.25
67803;BME280;54601;51.378;-1.342;2023-04-09T02:06:11;100996.20;;;19.39;28.22
67803;BME280;54601;51.378;-1.342;2023-04-09T02:08:33;100996.95;;;19.29;28.27
67803;BME280;54601;51.378;-1.342;2023-04-09T02:10:57;100993.98;;;19.43;28.11
67803;BME280;54601;51.378;-1.342;2023-04-09T02:13:21;100991.07;;;19.41;28.14
67803;BME280;54601;51.378;-1.342;2023-04-09T02:15:46;100987.16;;;19.11;28.40
67803;BME280;54601;51.378;-1.342;2023-04-09T02:18:19;100987.30;;;19.19;28.33
67803;BME280;54601;51.378;-1.342;2023-04-09T02:20:36;100985.90;;;19.35;28.15
67803;BME280;54601;51.378;-1.342;2023-04-09T02:23:01;100990.34;;;19.34;28.11
67803;BME280;54601;51.378;-1.342;2023-04-09T02:25:26;100991.37;;;19.33;28.13
67803;BME280;54601;51.378;-1.342;2023-04-09T02:27:51;100984.88;;;19.23;28.21
67803;BME280;54601;51.378;-1.342;2023-04-09T02:30:16;100979.93;;;19.27;28.12
67803;BME280;54601;51.378;-1.342;2023-04-09T02:32:41;100979.10;;;19.25;28.15
67803;BME280;54601;51.378;-1.342;2023-04-09T02:35:07;100978.24;;;19.20;28.16
67803;BME280;54601;51.378;-1.342;2023-04-09T02:37:32;100977.38;;;19.18;28.18
67803;BME280;54601;51.378;-1.342;2023-04-09T02:39:57;100979.37;;;19.13;28.21
67803;BME280;54601;51.378;-1.342;2023-04-09T02:42:22;100982.15;;;19.25;28.07
67803;BME280;54601;51.378;-1.342;2023-04-09T02:44:47;100981.25;;;19.15;28.13
67803;BME280;54601;51.378;-1.342;2023-04-09T02:47:12;100980.20;;;19.19;28.12
67803;BME280;54601;51.378;-1.342;2023-04-09T02:49:37;100977.52;;;19.16;28.16
67803;BME280;54601;51.378;-1.342;2023-04-09T02:52:03;100974.01;;;19.08;28.18
67803;BME280;54601;51.378;-1.342;2023-04-09T02:54:28;100974.25;;;19.08;28.20
67803;BME280;54601;51.378;-1.342;2023-04-09T02:56:53;100973.04;;;19.10;28.18
67803;BME280;54601;51.378;-1.342;2023-04-09T02:59:18;100974.28;;;19.15;28.07
67803;BME280;54601;51.378;-1.342;2023-04-09T03:01:43;100972.69;;;19.12;28.10
67803;BME280;54601;51.378;-1.342;2023-04-09T03:04:08;100976.89;;;18.78;28.42
67803;BME280;54601;51.378;-1.342;2023-04-09T03:06:34;100970.23;;;18.98;28.22
67803;BME280;54601;51.378;-1.342;2023-04-09T03:08:59;100968.50;;;19.06;28.12
67803;BME280;54601;51.378;-1.342;2023-04-09T03:11:24;100962.77;;;18.52;28.66
67803;BME280;54601;51.378;-1.342;2023-04-09T03:13:49;100954.39;;;18.96;28.19
67803;BME280;54601;51.378;-1.342;2023-04-09T03:16:14;100948.03;;;18.85;28.27
67803;BME280;54601;51.378;-1.342;2023-04-09T03:18:39;100951.09;;;18.70;28.44
67803;BME280;54601;51.378;-1.342;2023-04-09T03:21:05;100947.80;;;18.21;28.89
67803;BME280;54601;51.378;-1.342;2023-04-09T03:23:30;100944.70;;;18.89;28.24
67803;BME280;54601;51.378;-1.342;2023-04-09T03:26:00;100950.17;;;18.59;28.48
67803;BME280;54601;51.378;-1.342;2023-04-09T03:28:20;100951.09;;;18.82;28.30
67803;BME280;54601;51.378;-1.342;2023-04-09T03:30:45;100955.38;;;19.09;28.31
67803;BME280;54601;51.378;-1.342;2023-04-09T03:33:10;100957.43;;;18.74;28.38
67803;BME280;54601;51.378;-1.342;2023-04-09T03:35:35;100958.29;;;18.95;28.14
67803;BME280;54601;51.378;-1.342;2023-04-09T03:38:00;100959.10;;;18.96;28.08
67803;BME280;54601;51.378;-1.342;2023-04-09T03:40:26;100955.00;;;18.35;28.75
67803;BME280;54601;51.378;-1.342;2023-04-09T03:42:51;100951.32;;;18.88;28.18
67803;BME280;54601;51.378;-1.342;2023-04-09T03:45:16;100948.99;;;18.95;28.12
67803;BME280;54601;51.378;-1.342;2023-04-09T03:47:41;100949.32;;;18.80;28.21
67803;BME280;54601;51.378;-1.342;2023-04-09T03:50:07;100948.18;;;18.08;28.95
67803;BME280;54601;51.378;-1.342;2023-04-09T03:52:31;100947.05;;;18.38;28.59
67803;BME280;54601;51.378;-1.342;2023-04-09T03:54:57;100943.11;;;18.10;28.92
67803;BME280;54601;51.378;-1.342;2023-04-09T03:57:22;100938.41;;;18.03;29.32
67803;BME280;54601;51.378;-1.342;2023-04-09T03:59:47;100940.21;;;18.71;28.46
67803;BME280;54601;51.378;-1.342;2023-04-09T04:02:12;100939.63;;;19.07;28.45
67803;BME280;54601;51.378;-1.342;2023-04-09T04:04:37;100937.48;;;18.94;28.16
67803;BME280;54601;51.378;-1.342;2023-04-09T04:07:03;100936.37;;;18.91;28.26
67803;BME280;54601;51.378;-1.342;2023-04-09T04:09:28;100929.24;;;18.00;29.11
67803;BME280;54601;51.378;-1.342;2023-04-09T04:11:53;100925.92;;;19.24;28.34
67803;BME280;54601;51.378;-1.342;2023-04-09T04:14:18;100924.87;;;18.43;28.92
67803;BME280;54601;51.378;-1.342;2023-04-09T04:16:43;100920.86;;;18.74;28.44
67803;BME280;54601;51.378;-1.342;2023-04-09T04:19:08;100919.28;;;18.80;28.38
67803;BME280;54601;51.378;-1.342;2023-04-09T04:21:33;100915.54;;;18.78;28.34
67803;BME280;54601;51.378;-1.342;2023-04-09T04:23:58;100908.28;;;19.10;28.28
67803;BME280;54601;51.378;-1.342;2023-04-09T04:26:24;100906.21;;;18.64;28.54
67803;BME280;54601;51.378;-1.342;2023-04-09T04:28:49;100906.45;;;18.86;28.16
67803;BME280;54601;51.378;-1.342;2023-04-09T04:31:14;100908.34;;;19.12;28.17
67803;BME280;54601;51.378;-1.342;2023-04-09T04:33:40;100905.15;;;18.92;28.03
67803;BME280;54601;51.378;-1.342;2023-04-09T04:36:05;100899.59;;;19.04;27.93
67803;BME280;54601;51.378;-1.342;2023-04-09T04:38:29;100899.88;;;18.93;28.08
67803;BME280;54601;51.378;-1.342;2023-04-09T04:40:54;100898.26;;;18.97;28.01
67803;BME280;54601;51.378;-1.342;2023-04-09T04:43:19;100896.73;;;19.09;27.92
67803;BME280;54601;51.378;-1.342;2023-04-09T04:45:45;100897.09;;;19.07;27.93
67803;BME280;54601;51.378;-1.342;2023-04-09T04:48:10;100900.97;;;19.06;27.93
67803;BME280;54601;51.378;-1.342;2023-04-09T04:50:35;100898.22;;;19.04;27.99
67803;BME280;54601;51.378;-1.342;2023-04-09T04:53:00;100897.92;;;19.02;28.01
67803;BME280;54601;51.378;-1.342;2023-04-09T04:55:25;100897.90;;;19.00;28.03
67803;BME280;54601;51.378;-1.342;2023-04-09T04:57:50;100895.56;;;19.09;27.93
67803;BME280;54601;51.378;-1.342;2023-04-09T05:00:15;100894.90;;;19.07;27.96
67803;BME280;54601;51.378;-1.342;2023-04-09T05:02:41;100891.96;;;19.19;27.83
67803;BME280;54601;51.378;-1.342;2023-04-09T05:05:06;100890.87;;;19.05;27.99
67803;BME280;54601;51.378;-1.342;2023-04-09T05:07:32;100892.12;;;18.70;28.10
67803;BME280;54601;51.378;-1.342;2023-04-09T05:09:56;100892.90;;;19.01;28.06
67803;BME280;54601;51.378;-1.342;2023-04-09T05:12:21;100897.79;;;19.07;28.00
67803;BME280;54601;51.378;-1.342;2023-04-09T05:14:46;100903.67;;;19.05;28.04
67803;BME280;54601;51.378;-1.342;2023-04-09T05:17:11;100909.36;;;19.13;27.97
67803;BME280;54601;51.378;-1.342;2023-04-09T05:19:37;100909.40;;;19.10;27.99
67803;BME280;54601;51.378;-1.342;2023-04-09T05:22:02;100907.09;;;18.92;28.19
67803;BME280;54601;51.378;-1.342;2023-04-09T05:24:27;100906.19;;;19.04;28.11
67803;BME280;54601;51.378;-1.342;2023-04-09T05:26:52;100902.51;;;18.88;28.25
67803;BME280;54601;51.378;-1.342;2023-04-09T05:29:17;100900.11;;;19.00;28.15
67803;BME280;54601;51.378;-1.342;2023-04-09T05:31:42;100896.59;;;18.98;28.18
67803;BME280;54601;51.378;-1.342;2023-04-09T05:34:08;100894.45;;;18.88;28.33
67803;BME280;54601;51.378;-1.342;2023-04-09T05:36:32;100889.60;;;18.89;28.30
67803;BME280;54601;51.378;-1.342;2023-04-09T05:38:58;100886.32;;;19.03;28.18
67803;BME280;54601;51.378;-1.342;2023-04-09T05:41:23;100880.39;;;19.17;28.06
67803;BME280;54601;51.378;-1.342;2023-04-09T05:43:48;100878.54;;;19.08;28.15
67803;BME280;54601;51.378;-1.342;2023-04-09T05:46:13;100874.98;;;18.84;28.19
67803;BME280;54601;51.378;-1.342;2023-04-09T05:48:38;100876.17;;;19.07;28.20
67803;BME280;54601;51.378;-1.342;2023-04-09T05:51:03;100872.38;;;19.14;28.16
67803;BME280;54601;51.378;-1.342;2023-04-09T05:53:29;100879.19;;;19.00;28.35
67803;BME280;54601;51.378;-1.342;2023-04-09T05:55:54;100877.05;;;19.18;28.15
67803;BME280;54601;51.378;-1.342;2023-04-09T05:58:19;100876.73;;;19.10;28.25
67803;BME280;54601;51.378;-1.342;2023-04-09T06:00:44;100867.26;;;18.99;28.39
67803;BME280;54601;51.378;-1.342;2023-04-09T06:03:09;100864.29;;;19.14;28.06
67803;BME280;54601;51.378;-1.342;2023-04-09T06:05:34;100866.59;;;19.26;28.15
67803;BME280;54601;51.378;-1.342;2023-04-09T06:07:59;100869.10;;;19.31;28.12
67803;BME280;54601;51.378;-1.342;2023-04-09T06:10:25;100867.74;;;19.26;28.19
67803;BME280;54601;51.378;-1.342;2023-04-09T06:12:50;100864.83;;;19.42;28.06
67803;BME280;54601;51.378;-1.342;2023-04-09T06:15:15;100863.79;;;19.16;28.34
67803;BME280;54601;51.378;-1.342;2023-04-09T06:17:40;100861.52;;;19.12;28.12
67803;BME280;54601;51.378;-1.342;2023-04-09T06:20:06;100857.50;;;19.13;28.19
67803;BME280;54601;51.378;-1.342;2023-04-09T06:22:30;100862.17;;;19.50;28.09
67803;BME280;54601;51.378;-1.342;2023-04-09T06:24:55;100874.12;;;18.92;28.18
67803;BME280;54601;51.378;-1.342;2023-04-09T06:27:21;100876.65;;;19.27;28.13
67803;BME280;54601;51.378;-1.342;2023-04-09T06:29:45;100882.22;;;19.24;28.17
67803;BME280;54601;51.378;-1.342;2023-04-09T06:32:10;100883.70;;;19.01;28.17
67803;BME280;54601;51.378;-1.342;2023-04-09T06:34:36;100883.16;;;19.31;28.17
67803;BME280;54601;51.378;-1.342;2023-04-09T06:37:01;100889.55;;;19.21;28.31
67803;BME280;54601;51.378;-1.342;2023-04-09T06:39:26;100891.17;;;19.20;28.34
67803;BME280;54601;51.378;-1.342;2023-04-09T06:41:51;100892.30;;;19.06;28.51
67803;BME280;54601;51.378;-1.342;2023-04-09T06:44:16;100894.19;;;19.22;28.59
67803;BME280;54601;51.378;-1.342;2023-04-09T06:46:41;100893.54;;;19.18;28.45
67803;BME280;54601;51.378;-1.342;2023-04-09T06:49:07;100897.10;;;19.10;28.25
67803;BME280;54601;51.378;-1.342;2023-04-09T06:51:32;100894.39;;;18.80;28.60
67803;BME280;54601;51.378;-1.342;2023-04-09T06:53:57;100901.08;;;19.20;28.71
67803;BME280;54601;51.378;-1.342;2023-04-09T06:56:22;100904.59;;;19.19;28.81
67803;BME280;54601;51.378;-1.342;2023-04-09T06:58:47;100907.78;;;19.06;28.72
67803;BME280;54601;51.378;-1.342;2023-04-09T07:01:13;100905.67;;;18.67;28.87
67803;BME280;54601;51.378;-1.342;2023-04-09T07:03:37;100908.63;;;19.10;28.95
67803;BME280;54601;51.378;-1.342;2023-04-09T07:06:03;100904.92;;;18.67;28.92
67803;BME280;54601;51.378;-1.342;2023-04-09T07:08:28;100901.95;;;18.58;28.99
67803;BME280;54601;51.378;-1.342;2023-04-09T07:10:53;100896.88;;;18.61;28.98
67803;BME280;54601;51.378;-1.342;2023-04-09T07:13:18;100896.64;;;18.99;28.91
67803;BME280;54601;51.378;-1.342;2023-04-09T07:15:43;100892.96;;;18.85;29.10
67803;BME280;54601;51.378;-1.342;2023-04-09T07:18:08;100889.44;;;19.40;28.73
67803;BME280;54601;51.378;-1.342;2023-04-09T07:20:33;100891.87;;;19.19;28.78
67803;BME280;54601;51.378;-1.342;2023-04-09T07:22:58;100888.80;;;19.03;28.86
67803;BME280;54601;51.378;-1.342;2023-04-09T07:25:23;100886.01;;;19.00;29.00
67803;BME280;54601;51.378;-1.342;2023-04-09T07:27:49;100883.54;;;19.17;28.83
67803;BME280;54601;51.378;-1.342;2023-04-09T07:30:14;100880.12;;;19.34;28.93
67803;BME280;54601;51.378;-1.342;2023-04-09T07:32:39;100879.30;;;19.18;28.88
67803;BME280;54601;51.378;-1.342;2023-04-09T07:35:06;100875.20;;;18.98;29.09
67803;BME280;54601;51.378;-1.342;2023-04-09T07:37:29;100877.96;;;19.11;28.97
67803;BME280;54601;51.378;-1.342;2023-04-09T07:39:54;100876.23;;;19.14;29.18
67803;BME280;54601;51.378;-1.342;2023-04-09T07:42:19;100869.88;;;18.74;29.13
67803;BME280;54601;51.378;-1.342;2023-04-09T07:44:44;100870.86;;;19.15;29.01
67803;BME280;54601;51.378;-1.342;2023-04-09T07:47:09;100874.05;;;18.96;28.93
67803;BME280;54601;51.378;-1.342;2023-04-09T07:49:35;100874.73;;;19.15;29.02
67803;BME280;54601;51.378;-1.342;2023-04-09T07:52:00;100873.66;;;19.27;28.93
67803;BME280;54601;51.378;-1.342;2023-04-09T07:54:25;100874.10;;;18.85;29.12
67803;BME280;54601;51.378;-1.342;2023-04-09T07:56:50;100873.09;;;19.05;29.19
67803;BME280;54601;51.378;-1.342;2023-04-09T07:59:15;100869.11;;;19.22;29.06
67803;BME280;54601;51.378;-1.342;2023-04-09T08:01:40;100866.67;;;19.15;29.14
67803;BME280;54601;51.378;-1.342;2023-04-09T08:04:05;100864.00;;;19.18;29.12
67803;BME280;54601;51.378;-1.342;2023-04-09T08:06:30;100861.85;;;19.21;29.12
67803;BME280;54601;51.378;-1.342;2023-04-09T08:08:55;100868.43;;;19.19;29.18
67803;BME280;54601;51.378;-1.342;2023-04-09T08:11:21;100869.71;;;19.23;29.38
67803;BME280;54601;51.378;-1.342;2023-04-09T08:13:46;100867.98;;;19.04;29.08
67803;BME280;54601;51.378;-1.342;2023-04-09T08:16:11;100866.17;;;18.78;29.33
67803;BME280;54601;51.378;-1.342;2023-04-09T08:18:36;100862.11;;;18.93;29.41
67803;BME280;54601;51.378;-1.342;2023-04-09T08:21:03;100871.83;;;19.05;29.46
67803;BME280;54601;51.378;-1.342;2023-04-09T08:23:26;100870.73;;;19.14;29.38
67803;BME280;54601;51.378;-1.342;2023-04-09T08:25:51;100869.66;;;18.54;29.63
67803;BME280;54601;51.378;-1.342;2023-04-09T08:28:16;100876.08;;;18.26;30.56
67803;BME280;54601;51.378;-1.342;2023-04-09T08:30:41;100872.26;;;19.02;29.40
67803;BME280;54601;51.378;-1.342;2023-04-09T08:33:07;100865.86;;;18.97;29.48
67803;BME280;54601;51.378;-1.342;2023-04-09T08:35:32;100857.29;;;19.48;29.20
67803;BME280;54601;51.378;-1.342;2023-04-09T08:37:57;100848.59;;;19.53;29.12
67803;BME280;54601;51.378;-1.342;2023-04-09T08:40:22;100849.22;;;19.65;29.05
67803;BME280;54601;51.378;-1.342;2023-04-09T08:42:50;100854.66;;;19.52;29.02
67803;BME280;54601;51.378;-1.342;2023-04-09T08:45:13;100854.65;;;19.38;29.00
67803;BME280;54601;51.378;-1.342;2023-04-09T08:47:38;100855.07;;;19.75;28.63
67803;BME280;54601;51.378;-1.342;2023-04-09T08:50:03;100852.62;;;19.59;29.01
67803;BME280;54601;51.378;-1.342;2023-04-09T08:52:31;100857.80;;;20.00;28.68
67803;BME280;54601;51.378;-1.342;2023-04-09T08:54:52;100857.57;;;19.88;28.43
67803;BME280;54601;51.378;-1.342;2023-04-09T08:57:17;100849.54;;;20.12;28.37
67803;BME280;54601;51.378;-1.342;2023-04-09T08:59:42;100846.78;;;20.34;28.01
67803;BME280;54601;51.378;-1.342;2023-04-09T09:02:09;100853.68;;;19.93;28.69
67803;BME280;54601;51.378;-1.342;2023-04-09T09:07:05;100850.16;;;20.28;28.53
67803;BME280;54601;51.378;-1.342;2023-04-09T09:09:23;100851.44;;;19.97;29.11
67803;BME280;54601;51.378;-1.342;2023-04-09T09:11:48;100846.72;;;20.13;29.17
67803;BME280;54601;51.378;-1.342;2023-04-09T09:14:14;100845.28;;;19.79;29.85
67803;BME280;54601;51.378;-1.342;2023-04-09T09:16:39;100838.40;;;19.95;30.01
67803;BME280;54601;51.378;-1.342;2023-04-09T09:19:03;100837.40;;;19.85;30.21
67803;BME280;54601;51.378;-1.342;2023-04-09T09:21:28;100826.65;;;20.16;30.24
67803;BME280;54601;51.378;-1.342;2023-04-09T09:23:53;100823.76;;;19.86;30.12
67803;BME280;54601;51.378;-1.342;2023-04-09T09:26:21;100822.82;;;20.22;29.70
67803;BME280;54601;51.378;-1.342;2023-04-09T09:28:45;100825.93;;;20.33;29.64
67803;BME280;54601;51.378;-1.342;2023-04-09T09:31:11;100822.46;;;20.53;29.46
67803;BME280;54601;51.378;-1.342;2023-04-09T09:33:37;100825.09;;;20.17;29.96
67803;BME280;54601;51.378;-1.342;2023-04-09T09:36:03;100827.53;;;20.71;29.46
67803;BME280;54601;51.378;-1.342;2023-04-09T09:38:30;100827.62;;;20.86;29.46
67803;BME280;54601;51.378;-1.342;2023-04-09T09:40:55;100829.85;;;20.78;29.60
67803;BME280;54601;51.378;-1.342;2023-04-09T09:43:21;100825.29;;;21.03;29.41
67803;BME280;54601;51.378;-1.342;2023-04-09T09:45:47;100822.50;;;20.73;29.47
67803;BME280;54601;51.378;-1.342;2023-04-09T09:48:14;100817.44;;;21.10;29.44
67803;BME280;54601;51.378;-1.342;2023-04-09T09:50:40;100816.20;;;20.89;29.48
67803;BME280;54601;51.378;-1.342;2023-04-09T09:53:06;100822.58;;;20.92;29.55
67803;BME280;54601;51.378;-1.342;2023-04-09T09:55:32;100819.01;;;21.21;29.60
67803;BME280;54601;51.378;-1.342;2023-04-09T09:58:00;100820.62;;;21.42;29.51
67803;BME280;54601;51.378;-1.342;2023-04-09T10:00:24;100820.93;;;21.15;29.60
67803;BME280;54601;51.378;-1.342;2023-04-09T10:02:55;100823.94;;;21.13;29.62
67803;BME280;54601;51.378;-1.342;2023-04-09T10:05:15;100817.57;;;21.40;29.69
67803;BME280;54601;51.378;-1.342;2023-04-09T10:07:42;100817.04;;;21.24;29.65
67803;BME280;54601;51.378;-1.342;2023-04-09T10:10:08;100821.55;;;21.26;29.70
67803;BME280;54601;51.378;-1.342;2023-04-09T10:12:33;100817.34;;;21.16;29.92
67803;BME280;54601;51.378;-1.342;2023-04-09T10:15:00;100814.17;;;21.51;29.89
67803;BME280;54601;51.378;-1.342;2023-04-09T10:17:25;100805.63;;;21.30;29.82
67803;BME280;54601;51.378;-1.342;2023-04-09T10:19:58;100809.46;;;21.46;29.64
67803;BME280;54601;51.378;-1.342;2023-04-09T10:22:19;100801.51;;;21.41;29.76
67803;BME280;54601;51.378;-1.342;2023-04-09T10:24:44;100797.47;;;21.47;29.67
67803;BME280;54601;51.378;-1.342;2023-04-09T10:27:10;100794.47;;;21.45;29.69
67803;BME280;54601;51.378;-1.342;2023-04-09T10:29:41;100791.53;;;21.48;29.64
67803;BME280;54601;51.378;-1.342;2023-04-09T10:32:04;100786.50;;;21.29;29.56
67803;BME280;54601;51.378;-1.342;2023-04-09T10:34:27;100788.31;;;21.52;29.58
67803;BME280;54601;51.378;-1.342;2023-04-09T10:36:56;100784.43;;;21.78;29.59
67803;BME280;54601;51.378;-1.342;2023-04-09T10:39:19;100780.30;;;21.20;29.68
67803;BME280;54601;51.378;-1.342;2023-04-09T10:41:46;100775.23;;;21.40;29.74
67803;BME280;54601;51.378;-1.342;2023-04-09T10:44:19;100771.99;;;21.43;29.68
67803;BME280;54601;51.378;-1.342;2023-04-09T10:46:37;100766.30;;;21.76;29.61
67803;BME280;54601;51.378;-1.342;2023-04-09T10:49:09;100766.01;;;21.59;29.48
67803;BME280;54601;51.378;-1.342;2023-04-09T10:51:34;100757.11;;;21.46;29.59
67803;BME280;54601;51.378;-1.342;2023-04-09T10:53:55;100754.00;;;21.46;29.56
67803;BME280;54601;51.378;-1.342;2023-04-09T10:56:21;100752.96;;;21.27;29.52
67803;BME280;54601;51.378;-1.342;2023-04-09T10:58:47;100748.55;;;21.37;29.61
67803;BME280;54601;51.378;-1.342;2023-04-09T11:01:19;100752.29;;;21.20;29.50
67803;BME280;54601;51.378;-1.342;2023-04-09T11:03:43;100746.84;;;21.20;29.51
67803;BME280;54601;51.378;-1.342;2023-04-09T11:06:08;100741.80;;;21.42;29.50
67803;BME280;54601;51.378;-1.342;2023-04-09T11:08:32;100742.44;;;21.44;29.45
67803;BME280;54601;51.378;-1.342;2023-04-09T11:10:57;100742.42;;;21.38;29.50
67803;BME280;54601;51.378;-1.342;2023-04-09T11:13:29;100737.68;;;21.35;29.53
67803;BME280;54601;51.378;-1.342;2023-04-09T11:15:49;100734.91;;;21.60;29.53
67803;BME280;54601;51.378;-1.342;2023-04-09T11:18:19;100737.27;;;21.63;29.43
67803;BME280;54601;51.378;-1.342;2023-04-09T11:20:41;100730.14;;;21.29;29.51
67803;BME280;54601;51.378;-1.342;2023-04-09T11:23:07;100719.04;;;21.26;29.49
67803;BME280;54601;51.378;-1.342;2023-04-09T11:25:33;100717.17;;;21.34;29.43
67803;BME280;54601;51.378;-1.342;2023-04-09T11:28:01;100714.57;;;21.37;29.39
67803;BME280;54601;51.378;-1.342;2023-04-09T11:30:25;100712.87;;;21.40;29.33
67803;BME280;54601;51.378;-1.342;2023-04-09T11:32:51;100698.39;;;21.50;29.45
67803;BME280;54601;51.378;-1.342;2023-04-09T11:35:18;100700.44;;;21.27;29.44
67803;BME280;54601;51.378;-1.342;2023-04-09T11:37:44;100698.87;;;21.35;29.33
67803;BME280;54601;51.378;-1.342;2023-04-09T11:40:14;100695.57;;;21.05;29.48
67803;BME280;54601;51.378;-1.342;2023-04-09T11:42:35;100690.46;;;21.40;29.45
67803;BME280;54601;51.378;-1.342;2023-04-09T11:45:01;100686.89;;;21.64;29.58
67803;BME280;54601;51.378;-1.342;2023-04-09T11:47:27;100692.87;;;21.16;29.61
67803;BME280;54601;51.378;-1.342;2023-04-09T11:49:53;100686.95;;;21.62;29.58
67803;BME280;54601;51.378;-1.342;2023-04-09T11:52:19;100682.66;;;21.16;29.70
67803;BME280;54601;51.378;-1.342;2023-04-09T11:54:48;100668.52;;;21.36;29.39
67803;BME280;54601;51.378;-1.342;2023-04-09T11:57:11;100673.97;;;21.47;29.37
67803;BME280;54601;51.378;-1.342;2023-04-09T11:59:37;100676.40;;;21.25;29.73
67803;BME280;54601;51.378;-1.342;2023-04-09T12:02:05;100672.16;;;21.28;29.84
67803;BME280;54601;51.378;-1.342;2023-04-09T12:04:29;100668.58;;;21.22;30.07
67803;BME280;54601;51.378;-1.342;2023-04-09T12:06:56;100660.98;;;21.60;30.09
67803;BME280;54601;51.378;-1.342;2023-04-09T12:09:21;100666.04;;;21.55;30.17
67803;BME280;54601;51.378;-1.342;2023-04-09T12:11:47;100662.14;;;21.28;30.21
67803;BME280;54601;51.378;-1.342;2023-04-09T12:14:13;100664.59;;;21.59;30.20
67803;BME280;54601;51.378;-1.342;2023-04-09T12:16:39;100659.22;;;21.17;30.39
67803;BME280;54601;51.378;-1.342;2023-04-09T12:19:05;100658.07;;;21.25;30.28
67803;BME280;54601;51.378;-1.342;2023-04-09T12:23:57;100656.28;;;21.32;30.22
67803;BME280;54601;51.378;-1.342;2023-04-09T12:26:23;100654.90;;;21.26;30.07
67803;BME280;54601;51.378;-1.342;2023-04-09T12:28:49;100654.40;;;21.35;30.12
67803;BME280;54601;51.378;-1.342;2023-04-09T12:31:15;100649.81;;;21.26;30.21
67803;BME280;54601;51.378;-1.342;2023-04-09T12:33:41;100651.70;;;21.63;29.83